sensor_id;sensor_type;location;lat;lon;timestamp;temperature;humidity
54260;DHT22;40172;53.022;7.012;2024-03-02T00:01:43;6.10;99.90
54260;DHT22;40172;53.022;7.012;2024-03-02T00:04:09;5.60;99.90
54260;DHT22;40172;53.022;7.012;2024-03-02T00:06:35;5.60;99.90
54260;DHT22;40172;53.022;7.012;2024-03-02T00:09:00;6.10;99.90
54260;DHT22;40172;53.022;7.012;2024-03-02T00:11:26;5.90;99.90
54260;DHT22;40172;53.022;7.012;2024-03-02T00:13:53;6.00;99.90
54260;DHT22;40172;53.022;7.012;2024-03-02T00:16:19;5.70;99.90
54260;DHT22;40172;53.022;7.012;2024-03-02T00:18:45;6.10;99.90
54260;DHT22;40172;53.022;7.012;2024-03-02T00:21:12;6.20;99.90
54260;DHT22;40172;53.022;7.012;2024-03-02T00:23:40;6.10;99.90
54260;DHT22;40172;53.022;7.012;2024-03-02T00:26:05;6.50;99.90
54260;DHT22;40172;53.022;7.012;2024-03-02T00:28:33;6.10;99.90
54260;DHT22;40172;53.022;7.012;2024-03-02T00:31:08;6.10;99.90
54260;DHT22;40172;53.022;7.012;2024-03-02T00:33:42;5.90;99.90
54260;DHT22;40172;53.022;7.012;2024-03-02T00:36:09;5.90;99.90
54260;DHT22;40172;53.022;7.012;2024-03-02T00:38:52;6.20;99.90
54260;DHT22;40172;53.022;7.012;2024-03-02T00:41:27;6.30;99.90
54260;DHT22;40172;53.022;7.012;2024-03-02T00:44:06;6.40;99.90
54260;DHT22;40172;53.022;7.012;2024-03-02T00:46:38;6.40;99.90
54260;DHT22;40172;53.022;7.012;2024-03-02T00:49:05;6.10;99.90
54260;DHT22;40172;53.022;7.012;2024-03-02T00:51:33;6.10;99.90
54260;DHT22;40172;53.022;7.012;2024-03-02T00:54:07;6.10;99.90
54260;DHT22;40172;53.022;7.012;2024-03-02T00:56:33;6.10;99.90
54260;DHT22;40172;53.022;7.012;2024-03-02T00:59:00;6.30;99.90
54260;DHT22;40172;53.022;7.012;2024-03-02T01:01:26;6.90;99.90
54260;DHT22;40172;53.022;7.012;2024-03-02T01:03:52;6.70;99.90
54260;DHT22;40172;53.022;7.012;2024-03-02T01:06:18;6.20;99.90
54260;DHT22;40172;53.022;7.012;2024-03-02T01:08:45;6.50;99.90
54260;DHT22;40172;53.022;7.012;2024-03-02T01:11:11;6.30;99.90
54260;DHT22;40172;53.022;7.012;2024-03-02T01:13:37;6.20;99.90
54260;DHT22;40172;53.022;7.012;2024-03-02T01:16:03;6.70;99.90
54260;DHT22;40172;53.022;7.012;2024-03-02T01:18:29;6.40;99.90
54260;DHT22;40172;53.022;7.012;2024-03-02T01:20:56;7.20;99.90
54260;DHT22;40172;53.022;7.012;2024-03-02T01:23:25;6.80;99.90
54260;DHT22;40172;53.022;7.012;2024-03-02T01:25:51;7.10;99.90
54260;DHT22;40172;53.022;7.012;2024-03-02T01:28:18;6.80;99.90
54260;DHT22;40172;53.022;7.012;2024-03-02T01:30:44;6.80;99.90
54260;DHT22;40172;53.022;7.012;2024-03-02T01:33:10;6.50;99.90
54260;DHT22;40172;53.022;7.012;2024-03-02T01:35:36;7.30;99.90
54260;DHT22;40172;53.022;7.012;2024-03-02T01:38:03;6.60;99.90
54260;DHT22;40172;53.022;7.012;2024-03-02T01:40:29;6.60;99.90
54260;DHT22;40172;53.022;7.012;2024-03-02T01:42:55;7.10;99.90
54260;DHT22;40172;53.022;7.012;2024-03-02T01:45:24;7.00;99.90
54260;DHT22;40172;53.022;7.012;2024-03-02T01:47:50;6.90;99.90
54260;DHT22;40172;53.022;7.012;2024-03-02T01:50:17;6.70;99.90
54260;DHT22;40172;53.022;7.012;2024-03-02T01:52:49;6.70;99.90
54260;DHT22;40172;53.022;7.012;2024-03-02T01:55:15;7.10;99.90
54260;DHT22;40172;53.022;7.012;2024-03-02T01:57:41;6.80;99.90
54260;DHT22;40172;53.022;7.012;2024-03-02T02:00:07;6.80;99.90
54260;DHT22;40172;53.022;7.012;2024-03-02T02:02:33;6.80;99.90
54260;DHT22;40172;53.022;7.012;2024-03-02T02:04:58;7.10;99.90
54260;DHT22;40172;53.022;7.012;2024-03-02T02:07:24;6.90;99.90
54260;DHT22;40172;53.022;7.012;2024-03-02T02:09:50;6.90;99.90
54260;DHT22;40172;53.022;7.012;2024-03-02T02:12:16;6.90;99.90
54260;DHT22;40172;53.022;7.012;2024-03-02T02:14:47;7.20;99.90
54260;DHT22;40172;53.022;7.012;2024-03-02T02:17:14;7.00;99.90
54260;DHT22;40172;53.022;7.012;2024-03-02T02:19:41;7.10;99.90
54260;DHT22;40172;53.022;7.012;2024-03-02T02:22:07;7.10;99.90
54260;DHT22;40172;53.022;7.012;2024-03-02T02:24:32;7.00;99.90
54260;DHT22;40172;53.022;7.012;2024-03-02T02:26:58;7.10;99.90
54260;DHT22;40172;53.022;7.012;2024-03-02T02:29:24;7.40;99.90
54260;DHT22;40172;53.022;7.012;2024-03-02T02:31:49;7.00;99.90
54260;DHT22;40172;53.022;7.012;2024-03-02T02:34:15;7.40;99.90
54260;DHT22;40172;53.022;7.012;2024-03-02T02:36:41;7.10;99.90
54260;DHT22;40172;53.022;7.012;2024-03-02T02:39:11;7.00;99.90
54260;DHT22;40172;53.022;7.012;2024-03-02T02:41:38;7.00;99.90
54260;DHT22;40172;53.022;7.012;2024-03-02T02:44:05;7.30;99.90
54260;DHT22;40172;53.022;7.012;2024-03-02T02:46:31;7.10;99.90
54260;DHT22;40172;53.022;7.012;2024-03-02T02:48:56;7.10;99.90
54260;DHT22;40172;53.022;7.012;2024-03-02T02:51:22;7.10;99.90
54260;DHT22;40172;53.022;7.012;2024-03-02T02:53:49;7.20;99.90
54260;DHT22;40172;53.022;7.012;2024-03-02T02:56:14;7.10;99.90
54260;DHT22;40172;53.022;7.012;2024-03-02T02:58:40;7.40;99.90
54260;DHT22;40172;53.022;7.012;2024-03-02T03:01:07;7.20;99.90
54260;DHT22;40172;53.022;7.012;2024-03-02T03:03:33;7.20;99.90
54260;DHT22;40172;53.022;7.012;2024-03-02T03:05:59;7.20;99.90
54260;DHT22;40172;53.022;7.012;2024-03-02T03:08:24;7.70;99.90
54260;DHT22;40172;53.022;7.012;2024-03-02T03:10:50;7.50;99.90
54260;DHT22;40172;53.022;7.012;2024-03-02T03:13:16;7.20;99.90
54260;DHT22;40172;53.022;7.012;2024-03-02T03:15:41;7.10;99.90
54260;DHT22;40172;53.022;7.012;2024-03-02T03:18:07;7.00;99.90
54260;DHT22;40172;53.022;7.012;2024-03-02T03:20:33;7.30;99.90
54260;DHT22;40172;53.022;7.012;2024-03-02T03:22:59;7.10;99.90
54260;DHT22;40172;53.022;7.012;2024-03-02T03:25:25;6.90;99.90
54260;DHT22;40172;53.022;7.012;2024-03-02T03:27:51;7.00;99.90
54260;DHT22;40172;53.022;7.012;2024-03-02T03:30:19;7.00;99.90
54260;DHT22;40172;53.022;7.012;2024-03-02T03:32:45;7.00;99.90
54260;DHT22;40172;53.022;7.012;2024-03-02T03:35:11;7.00;99.90
54260;DHT22;40172;53.022;7.012;2024-03-02T03:37:38;7.10;99.90
54260;DHT22;40172;53.022;7.012;2024-03-02T03:40:05;7.00;99.90
54260;DHT22;40172;53.022;7.012;2024-03-02T03:42:37;7.10;99.90
54260;DHT22;40172;53.022;7.012;2024-03-02T03:45:03;7.20;99.90
54260;DHT22;40172;53.022;7.012;2024-03-02T03:47:29;7.10;99.90
54260;DHT22;40172;53.022;7.012;2024-03-02T03:49:56;7.10;99.90
54260;DHT22;40172;53.022;7.012;2024-03-02T03:52:21;7.10;99.90
54260;DHT22;40172;53.022;7.012;2024-03-02T03:54:47;7.10;99.90
54260;DHT22;40172;53.022;7.012;2024-03-02T03:57:13;7.10;99.90
54260;DHT22;40172;53.022;7.012;2024-03-02T03:59:38;7.20;99.90
54260;DHT22;40172;53.022;7.012;2024-03-02T04:02:04;7.10;99.90
54260;DHT22;40172;53.022;7.012;2024-03-02T04:04:30;7.40;99.90
54260;DHT22;40172;53.022;7.012;2024-03-02T04:06:56;7.20;99.90
54260;DHT22;40172;53.022;7.012;2024-03-02T04:09:21;7.10;99.90
54260;DHT22;40172;53.022;7.012;2024-03-02T04:11:47;7.10;99.90
54260;DHT22;40172;53.022;7.012;2024-03-02T04:14:13;7.10;99.90
54260;DHT22;40172;53.022;7.012;2024-03-02T04:16:39;7.00;99.90
54260;DHT22;40172;53.022;7.012;2024-03-02T04:19:05;6.90;99.90
54260;DHT22;40172;53.022;7.012;2024-03-02T04:21:31;7.30;99.90
54260;DHT22;40172;53.022;7.012;2024-03-02T04:23:56;7.30;99.90
54260;DHT22;40172;53.022;7.012;2024-03-02T04:26:28;7.20;99.90
54260;DHT22;40172;53.022;7.012;2024-03-02T04:28:54;7.20;99.90
54260;DHT22;40172;53.022;7.012;2024-03-02T04:31:20;7.10;99.90
54260;DHT22;40172;53.022;7.012;2024-03-02T04:33:46;6.90;99.90
54260;DHT22;40172;53.022;7.012;2024-03-02T04:36:11;6.80;99.90
54260;DHT22;40172;53.022;7.012;2024-03-02T04:38:38;7.40;99.90
54260;DHT22;40172;53.022;7.012;2024-03-02T04:41:04;6.70;99.90
54260;DHT22;40172;53.022;7.012;2024-03-02T04:43:31;6.70;99.90
54260;DHT22;40172;53.022;7.012;2024-03-02T04:45:58;6.60;99.90
54260;DHT22;40172;53.022;7.012;2024-03-02T04:48:24;6.80;99.90
54260;DHT22;40172;53.022;7.012;2024-03-02T04:50:49;7.20;99.90
54260;DHT22;40172;53.022;7.012;2024-03-02T04:53:15;6.80;99.90
54260;DHT22;40172;53.022;7.012;2024-03-02T04:55:41;6.90;99.90
54260;DHT22;40172;53.022;7.012;2024-03-02T04:58:06;6.90;99.90
54260;DHT22;40172;53.022;7.012;2024-03-02T05:00:33;6.60;99.90
54260;DHT22;40172;53.022;7.012;2024-03-02T05:02:58;6.70;99.90
54260;DHT22;40172;53.022;7.012;2024-03-02T05:05:24;6.90;99.90
54260;DHT22;40172;53.022;7.012;2024-03-02T05:07:50;6.50;99.90
54260;DHT22;40172;53.022;7.012;2024-03-02T05:10:16;6.80;99.90
54260;DHT22;40172;53.022;7.012;2024-03-02T05:12:42;6.70;99.90
54260;DHT22;40172;53.022;7.012;2024-03-02T05:15:08;6.90;99.90
54260;DHT22;40172;53.022;7.012;2024-03-02T05:17:36;6.60;99.90
54260;DHT22;40172;53.022;7.012;2024-03-02T05:20:03;7.00;99.90
54260;DHT22;40172;53.022;7.012;2024-03-02T05:22:29;6.70;99.90
54260;DHT22;40172;53.022;7.012;2024-03-02T05:24:55;6.70;99.90
54260;DHT22;40172;53.022;7.012;2024-03-02T05:27:20;7.10;99.90
54260;DHT22;40172;53.022;7.012;2024-03-02T05:29:46;7.00;99.90
54260;DHT22;40172;53.022;7.012;2024-03-02T05:32:12;6.60;99.90
54260;DHT22;40172;53.022;7.012;2024-03-02T05:34:38;6.50;99.90
54260;DHT22;40172;53.022;7.012;2024-03-02T05:37:03;7.00;99.90
54260;DHT22;40172;53.022;7.012;2024-03-02T05:39:29;7.10;99.90
54260;DHT22;40172;53.022;7.012;2024-03-02T05:41:55;7.10;99.90
54260;DHT22;40172;53.022;7.012;2024-03-02T05:44:20;6.50;99.90
54260;DHT22;40172;53.022;7.012;2024-03-02T05:46:47;6.50;99.90
54260;DHT22;40172;53.022;7.012;2024-03-02T05:49:13;6.40;99.90
54260;DHT22;40172;53.022;7.012;2024-03-02T05:51:39;6.30;99.90
54260;DHT22;40172;53.022;7.012;2024-03-02T05:54:05;6.90;99.90
54260;DHT22;40172;53.022;7.012;2024-03-02T05:56:30;6.60;99.90
54260;DHT22;40172;53.022;7.012;2024-03-02T05:58:56;6.20;99.90
54260;DHT22;40172;53.022;7.012;2024-03-02T06:01:43;6.40;99.90
54260;DHT22;40172;53.022;7.012;2024-03-02T06:04:10;6.40;99.90
54260;DHT22;40172;53.022;7.012;2024-03-02T06:06:39;6.10;99.90
54260;DHT22;40172;53.022;7.012;2024-03-02T06:09:06;6.30;99.90
54260;DHT22;40172;53.022;7.012;2024-03-02T06:13:59;6.20;99.90
54260;DHT22;40172;53.022;7.012;2024-03-02T06:16:25;6.20;99.90
54260;DHT22;40172;53.022;7.012;2024-03-02T06:18:50;6.60;99.90
54260;DHT22;40172;53.022;7.012;2024-03-02T06:21:17;6.30;99.90
54260;DHT22;40172;53.022;7.012;2024-03-02T06:23:44;7.10;99.90
54260;DHT22;40172;53.022;7.012;2024-03-02T06:26:09;6.60;99.90
54260;DHT22;40172;53.022;7.012;2024-03-02T06:28:35;6.70;99.90
54260;DHT22;40172;53.022;7.012;2024-03-02T06:31:02;7.10;99.90
54260;DHT22;40172;53.022;7.012;2024-03-02T06:33:27;6.50;99.90
54260;DHT22;40172;53.022;7.012;2024-03-02T06:35:54;6.70;99.90
54260;DHT22;40172;53.022;7.012;2024-03-02T06:38:19;6.40;99.90
54260;DHT22;40172;53.022;7.012;2024-03-02T06:40:45;6.90;99.90
54260;DHT22;40172;53.022;7.012;2024-03-02T06:43:11;6.80;99.90
54260;DHT22;40172;53.022;7.012;2024-03-02T06:45:36;6.50;99.90
54260;DHT22;40172;53.022;7.012;2024-03-02T06:48:02;6.50;99.90
54260;DHT22;40172;53.022;7.012;2024-03-02T06:50:28;6.50;99.90
54260;DHT22;40172;53.022;7.012;2024-03-02T06:52:54;6.70;99.90
54260;DHT22;40172;53.022;7.012;2024-03-02T06:55:21;6.70;99.90
54260;DHT22;40172;53.022;7.012;2024-03-02T06:57:47;6.70;99.90
54260;DHT22;40172;53.022;7.012;2024-03-02T07:00:13;6.60;99.90
54260;DHT22;40172;53.022;7.012;2024-03-02T07:02:39;6.70;99.90
54260;DHT22;40172;53.022;7.012;2024-03-02T07:05:08;7.10;99.90
54260;DHT22;40172;53.022;7.012;2024-03-02T07:07:35;6.70;99.90
54260;DHT22;40172;53.022;7.012;2024-03-02T07:10:01;7.30;99.90
54260;DHT22;40172;53.022;7.012;2024-03-02T07:12:26;6.90;99.90
54260;DHT22;40172;53.022;7.012;2024-03-02T07:14:52;7.20;99.90
54260;DHT22;40172;53.022;7.012;2024-03-02T07:17:36;6.90;99.90
54260;DHT22;40172;53.022;7.012;2024-03-02T07:20:03;7.40;99.90
54260;DHT22;40172;53.022;7.012;2024-03-02T07:22:32;7.00;99.90
54260;DHT22;40172;53.022;7.012;2024-03-02T07:24:58;7.20;99.90
54260;DHT22;40172;53.022;7.012;2024-03-02T07:27:24;7.30;99.90
54260;DHT22;40172;53.022;7.012;2024-03-02T07:29:50;7.20;99.90
54260;DHT22;40172;53.022;7.012;2024-03-02T07:32:15;7.20;99.90
54260;DHT22;40172;53.022;7.012;2024-03-02T07:34:41;7.20;99.90
54260;DHT22;40172;53.022;7.012;2024-03-02T07:37:07;7.30;99.90
54260;DHT22;40172;53.022;7.012;2024-03-02T07:39:33;8.30;99.90
54260;DHT22;40172;53.022;7.012;2024-03-02T07:41:59;7.10;99.90
54260;DHT22;40172;53.022;7.012;2024-03-02T07:44:25;7.10;99.90
54260;DHT22;40172;53.022;7.012;2024-03-02T07:46:51;7.00;99.90
54260;DHT22;40172;53.022;7.012;2024-03-02T07:49:18;7.20;99.90
54260;DHT22;40172;53.022;7.012;2024-03-02T07:51:45;7.10;99.90
54260;DHT22;40172;53.022;7.012;2024-03-02T07:54:10;7.00;99.90
54260;DHT22;40172;53.022;7.012;2024-03-02T07:56:36;7.00;99.90
54260;DHT22;40172;53.022;7.012;2024-03-02T07:59:03;7.00;99.90
54260;DHT22;40172;53.022;7.012;2024-03-02T08:01:29;7.10;99.90
54260;DHT22;40172;53.022;7.012;2024-03-02T08:03:59;7.30;99.90
54260;DHT22;40172;53.022;7.012;2024-03-02T08:06:28;7.30;99.90
54260;DHT22;40172;53.022;7.012;2024-03-02T08:08:54;7.30;99.90
54260;DHT22;40172;53.022;7.012;2024-03-02T08:11:20;7.50;99.90
54260;DHT22;40172;53.022;7.012;2024-03-02T08:13:47;7.40;99.90
54260;DHT22;40172;53.022;7.012;2024-03-02T08:16:13;7.50;99.90
54260;DHT22;40172;53.022;7.012;2024-03-02T08:18:39;7.50;99.90
54260;DHT22;40172;53.022;7.012;2024-03-02T08:21:04;7.60;99.90
54260;DHT22;40172;53.022;7.012;2024-03-02T08:23:31;7.60;99.90
54260;DHT22;40172;53.022;7.012;2024-03-02T08:25:57;7.70;99.90
54260;DHT22;40172;53.022;7.012;2024-03-02T08:28:23;7.80;99.90
54260;DHT22;40172;53.022;7.012;2024-03-02T08:30:48;7.90;99.90
54260;DHT22;40172;53.022;7.012;2024-03-02T08:33:14;7.90;99.90
54260;DHT22;40172;53.022;7.012;2024-03-02T08:35:40;8.00;99.90
54260;DHT22;40172;53.022;7.012;2024-03-02T08:38:05;8.20;99.90
54260;DHT22;40172;53.022;7.012;2024-03-02T08:40:31;8.10;99.90
54260;DHT22;40172;53.022;7.012;2024-03-02T08:42:57;8.20;99.90
54260;DHT22;40172;53.022;7.012;2024-03-02T08:45:23;8.30;99.90
54260;DHT22;40172;53.022;7.012;2024-03-02T08:47:48;8.40;99.90
54260;DHT22;40172;53.022;7.012;2024-03-02T08:50:14;8.40;99.90
54260;DHT22;40172;53.022;7.012;2024-03-02T08:52:40;8.50;99.90
54260;DHT22;40172;53.022;7.012;2024-03-02T08:55:06;8.50;99.90
54260;DHT22;40172;53.022;7.012;2024-03-02T08:57:33;8.60;99.90
54260;DHT22;40172;53.022;7.012;2024-03-02T08:59:59;8.60;99.90
54260;DHT22;40172;53.022;7.012;2024-03-02T09:02:25;8.70;99.90
54260;DHT22;40172;53.022;7.012;2024-03-02T09:04:51;8.70;99.90
54260;DHT22;40172;53.022;7.012;2024-03-02T09:07:17;8.80;99.90
54260;DHT22;40172;53.022;7.012;2024-03-02T09:09:42;8.80;99.90
54260;DHT22;40172;53.022;7.012;2024-03-02T09:12:08;8.90;99.90
54260;DHT22;40172;53.022;7.012;2024-03-02T09:14:35;9.00;99.90
54260;DHT22;40172;53.022;7.012;2024-03-02T09:17:02;9.20;99.90
54260;DHT22;40172;53.022;7.012;2024-03-02T09:19:28;9.30;99.90
54260;DHT22;40172;53.022;7.012;2024-03-02T09:21:53;9.50;99.90
54260;DHT22;40172;53.022;7.012;2024-03-02T09:24:21;9.70;99.90
54260;DHT22;40172;53.022;7.012;2024-03-02T09:26:47;9.80;99.90
54260;DHT22;40172;53.022;7.012;2024-03-02T09:29:12;9.80;99.90
54260;DHT22;40172;53.022;7.012;2024-03-02T09:31:42;9.80;99.90
54260;DHT22;40172;53.022;7.012;2024-03-02T09:34:08;9.80;99.90
54260;DHT22;40172;53.022;7.012;2024-03-02T09:36:33;9.80;99.90
54260;DHT22;40172;53.022;7.012;2024-03-02T09:38:59;9.80;99.90
54260;DHT22;40172;53.022;7.012;2024-03-02T09:41:25;9.80;99.90
54260;DHT22;40172;53.022;7.012;2024-03-02T09:43:51;9.80;99.90
54260;DHT22;40172;53.022;7.012;2024-03-02T09:46:16;9.90;99.90
54260;DHT22;40172;53.022;7.012;2024-03-02T09:48:46;9.90;99.90
54260;DHT22;40172;53.022;7.012;2024-03-02T09:51:12;10.00;99.90
54260;DHT22;40172;53.022;7.012;2024-03-02T09:53:40;10.10;99.90
54260;DHT22;40172;53.022;7.012;2024-03-02T09:56:06;10.10;99.90
54260;DHT22;40172;53.022;7.012;2024-03-02T09:58:31;10.20;99.90
54260;DHT22;40172;53.022;7.012;2024-03-02T10:00:57;10.30;99.90
54260;DHT22;40172;53.022;7.012;2024-03-02T10:03:23;10.30;99.90
54260;DHT22;40172;53.022;7.012;2024-03-02T10:05:52;10.40;99.90
54260;DHT22;40172;53.022;7.012;2024-03-02T10:08:18;10.40;99.90
54260;DHT22;40172;53.022;7.012;2024-03-02T10:10:43;10.50;99.90
54260;DHT22;40172;53.022;7.012;2024-03-02T10:13:10;10.50;99.90
54260;DHT22;40172;53.022;7.012;2024-03-02T10:15:38;10.60;99.90
54260;DHT22;40172;53.022;7.012;2024-03-02T10:18:11;10.70;99.90
54260;DHT22;40172;53.022;7.012;2024-03-02T10:20:38;10.70;99.90
54260;DHT22;40172;53.022;7.012;2024-03-02T10:23:14;10.80;99.90
54260;DHT22;40172;53.022;7.012;2024-03-02T10:25:40;10.90;99.90
54260;DHT22;40172;53.022;7.012;2024-03-02T10:28:06;11.00;99.90
54260;DHT22;40172;53.022;7.012;2024-03-02T10:30:35;11.10;99.90
54260;DHT22;40172;53.022;7.012;2024-03-02T10:33:02;11.20;99.90
54260;DHT22;40172;53.022;7.012;2024-03-02T10:35:28;11.20;99.90
54260;DHT22;40172;53.022;7.012;2024-03-02T10:37:54;11.20;99.90
54260;DHT22;40172;53.022;7.012;2024-03-02T10:40:23;11.20;99.90
54260;DHT22;40172;53.022;7.012;2024-03-02T10:42:50;11.10;99.90
54260;DHT22;40172;53.022;7.012;2024-03-02T10:45:20;11.00;99.90
54260;DHT22;40172;53.022;7.012;2024-03-02T10:47:50;11.10;99.90
54260;DHT22;40172;53.022;7.012;2024-03-02T10:50:16;11.30;99.90
54260;DHT22;40172;53.022;7.012;2024-03-02T10:52:41;11.40;99.90
54260;DHT22;40172;53.022;7.012;2024-03-02T10:55:09;11.50;99.90
54260;DHT22;40172;53.022;7.012;2024-03-02T10:57:50;11.50;99.90
54260;DHT22;40172;53.022;7.012;2024-03-02T11:00:16;11.50;99.90
54260;DHT22;40172;53.022;7.012;2024-03-02T11:03:02;11.50;99.90
54260;DHT22;40172;53.022;7.012;2024-03-02T11:05:36;11.60;99.90
54260;DHT22;40172;53.022;7.012;2024-03-02T11:08:08;11.50;99.90
54260;DHT22;40172;53.022;7.012;2024-03-02T11:10:42;11.60;99.90
54260;DHT22;40172;53.022;7.012;2024-03-02T11:13:12;11.60;99.90
54260;DHT22;40172;53.022;7.012;2024-03-02T11:15:40;11.60;99.90
54260;DHT22;40172;53.022;7.012;2024-03-02T11:18:07;11.50;99.90
54260;DHT22;40172;53.022;7.012;2024-03-02T11:20:38;11.50;99.90
54260;DHT22;40172;53.022;7.012;2024-03-02T11:23:09;11.50;99.90
54260;DHT22;40172;53.022;7.012;2024-03-02T11:25:35;11.60;99.90
54260;DHT22;40172;53.022;7.012;2024-03-02T11:28:03;11.60;99.90
54260;DHT22;40172;53.022;7.012;2024-03-02T11:32:58;11.70;99.90
54260;DHT22;40172;53.022;7.012;2024-03-02T11:35:28;11.80;99.90
54260;DHT22;40172;53.022;7.012;2024-03-02T11:37:54;11.80;99.90
54260;DHT22;40172;53.022;7.012;2024-03-02T11:40:24;11.80;99.90
54260;DHT22;40172;53.022;7.012;2024-03-02T11:42:51;11.80;99.90
54260;DHT22;40172;53.022;7.012;2024-03-02T11:45:17;11.80;99.90
54260;DHT22;40172;53.022;7.012;2024-03-02T11:47:51;11.80;99.90
54260;DHT22;40172;53.022;7.012;2024-03-02T11:50:47;11.80;99.90
54260;DHT22;40172;53.022;7.012;2024-03-02T11:53:15;11.90;99.90
54260;DHT22;40172;53.022;7.012;2024-03-02T11:55:41;11.90;99.90
54260;DHT22;40172;53.022;7.012;2024-03-02T11:58:11;12.00;99.90
54260;DHT22;40172;53.022;7.012;2024-03-02T12:00:37;12.00;99.90
54260;DHT22;40172;53.022;7.012;2024-03-02T12:03:07;12.10;99.90
54260;DHT22;40172;53.022;7.012;2024-03-02T12:05:34;12.10;99.90
54260;DHT22;40172;53.022;7.012;2024-03-02T12:08:05;12.20;99.90
54260;DHT22;40172;53.022;7.012;2024-03-02T12:10:32;12.30;99.90
54260;DHT22;40172;53.022;7.012;2024-03-02T12:13:07;12.30;99.90
54260;DHT22;40172;53.022;7.012;2024-03-02T12:15:36;12.40;99.90
54260;DHT22;40172;53.022;7.012;2024-03-02T12:18:02;12.40;99.90
54260;DHT22;40172;53.022;7.012;2024-03-02T12:20:30;12.50;99.90
54260;DHT22;40172;53.022;7.012;2024-03-02T12:23:00;12.50;99.90
54260;DHT22;40172;53.022;7.012;2024-03-02T12:25:28;12.50;99.90
54260;DHT22;40172;53.022;7.012;2024-03-02T12:27:57;12.60;99.90
54260;DHT22;40172;53.022;7.012;2024-03-02T12:30:24;12.70;99.90
54260;DHT22;40172;53.022;7.012;2024-03-02T12:32:50;12.70;99.90
54260;DHT22;40172;53.022;7.012;2024-03-02T12:35:16;12.90;99.90
54260;DHT22;40172;53.022;7.012;2024-03-02T12:37:48;13.00;99.90
54260;DHT22;40172;53.022;7.012;2024-03-02T12:40:15;13.10;99.90
54260;DHT22;40172;53.022;7.012;2024-03-02T12:42:43;13.20;99.90
54260;DHT22;40172;53.022;7.012;2024-03-02T12:45:08;13.30;99.90
54260;DHT22;40172;53.022;7.012;2024-03-02T12:47:35;13.40;99.90
54260;DHT22;40172;53.022;7.012;2024-03-02T12:50:01;13.40;99.90
54260;DHT22;40172;53.022;7.012;2024-03-02T12:52:27;13.50;99.90
54260;DHT22;40172;53.022;7.012;2024-03-02T12:54:53;13.30;99.90
54260;DHT22;40172;53.022;7.012;2024-03-02T12:57:25;13.30;99.90
54260;DHT22;40172;53.022;7.012;2024-03-02T12:59:52;13.30;99.90
54260;DHT22;40172;53.022;7.012;2024-03-02T13:02:18;13.40;99.90
54260;DHT22;40172;53.022;7.012;2024-03-02T13:04:44;13.40;99.90
54260;DHT22;40172;53.022;7.012;2024-03-02T13:07:10;13.50;99.90
54260;DHT22;40172;53.022;7.012;2024-03-02T13:09:39;13.50;99.90
54260;DHT22;40172;53.022;7.012;2024-03-02T13:12:05;13.60;99.90
54260;DHT22;40172;53.022;7.012;2024-03-02T13:14:35;13.70;99.90
54260;DHT22;40172;53.022;7.012;2024-03-02T13:17:01;13.70;99.90
54260;DHT22;40172;53.022;7.012;2024-03-02T13:19:29;13.60;99.90
54260;DHT22;40172;53.022;7.012;2024-03-02T13:21:56;13.70;99.90
54260;DHT22;40172;53.022;7.012;2024-03-02T13:24:23;13.70;99.90
54260;DHT22;40172;53.022;7.012;2024-03-02T13:26:51;13.80;99.90
54260;DHT22;40172;53.022;7.012;2024-03-02T13:29:21;13.80;99.90
54260;DHT22;40172;53.022;7.012;2024-03-02T13:31:47;13.70;99.90
54260;DHT22;40172;53.022;7.012;2024-03-02T13:34:12;13.60;99.90
54260;DHT22;40172;53.022;7.012;2024-03-02T13:36:38;13.60;99.90
54260;DHT22;40172;53.022;7.012;2024-03-02T13:39:04;13.60;99.90
54260;DHT22;40172;53.022;7.012;2024-03-02T13:41:36;13.60;99.90
54260;DHT22;40172;53.022;7.012;2024-03-02T13:44:02;13.60;99.90
54260;DHT22;40172;53.022;7.012;2024-03-02T13:46:28;13.50;99.90
54260;DHT22;40172;53.022;7.012;2024-03-02T13:48:54;13.40;99.90
54260;DHT22;40172;53.022;7.012;2024-03-02T13:51:21;13.40;99.90
54260;DHT22;40172;53.022;7.012;2024-03-02T13:53:46;13.30;99.90
54260;DHT22;40172;53.022;7.012;2024-03-02T13:56:12;13.20;99.90
54260;DHT22;40172;53.022;7.012;2024-03-02T13:58:38;13.10;99.90
54260;DHT22;40172;53.022;7.012;2024-03-02T14:01:04;13.00;99.90
54260;DHT22;40172;53.022;7.012;2024-03-02T14:03:31;13.00;99.90
54260;DHT22;40172;53.022;7.012;2024-03-02T14:05:56;13.00;99.90
54260;DHT22;40172;53.022;7.012;2024-03-02T14:08:23;13.10;99.90
54260;DHT22;40172;53.022;7.012;2024-03-02T14:10:49;13.10;99.90
54260;DHT22;40172;53.022;7.012;2024-03-02T14:13:15;13.20;99.90
54260;DHT22;40172;53.022;7.012;2024-03-02T14:15:41;13.20;99.90
54260;DHT22;40172;53.022;7.012;2024-03-02T14:18:07;13.30;99.90
54260;DHT22;40172;53.022;7.012;2024-03-02T14:20:35;13.40;99.90
54260;DHT22;40172;53.022;7.012;2024-03-02T14:23:01;13.40;99.90
54260;DHT22;40172;53.022;7.012;2024-03-02T14:25:28;13.30;99.90
54260;DHT22;40172;53.022;7.012;2024-03-02T14:27:57;13.30;99.90
54260;DHT22;40172;53.022;7.012;2024-03-02T14:30:23;13.30;99.90
54260;DHT22;40172;53.022;7.012;2024-03-02T14:32:49;13.30;99.90
54260;DHT22;40172;53.022;7.012;2024-03-02T14:35:15;13.30;99.90
54260;DHT22;40172;53.022;7.012;2024-03-02T14:37:41;13.20;99.90
54260;DHT22;40172;53.022;7.012;2024-03-02T14:40:07;13.20;99.90
54260;DHT22;40172;53.022;7.012;2024-03-02T14:42:35;13.10;99.90
54260;DHT22;40172;53.022;7.012;2024-03-02T14:45:01;13.00;99.90
54260;DHT22;40172;53.022;7.012;2024-03-02T14:47:33;12.90;99.90
54260;DHT22;40172;53.022;7.012;2024-03-02T14:49:59;12.90;99.90
54260;DHT22;40172;53.022;7.012;2024-03-02T14:52:25;12.90;99.90
54260;DHT22;40172;53.022;7.012;2024-03-02T14:54:51;12.90;99.90
54260;DHT22;40172;53.022;7.012;2024-03-02T14:57:16;12.90;99.90
54260;DHT22;40172;53.022;7.012;2024-03-02T14:59:42;12.80;99.90
54260;DHT22;40172;53.022;7.012;2024-03-02T15:02:09;12.90;99.90
54260;DHT22;40172;53.022;7.012;2024-03-02T15:04:34;12.90;99.90
54260;DHT22;40172;53.022;7.012;2024-03-02T15:07:00;13.00;99.90
54260;DHT22;40172;53.022;7.012;2024-03-02T15:09:26;13.00;99.90
54260;DHT22;40172;53.022;7.012;2024-03-02T15:11:51;13.10;99.90
54260;DHT22;40172;53.022;7.012;2024-03-02T15:14:17;13.10;99.90
54260;DHT22;40172;53.022;7.012;2024-03-02T15:16:43;13.20;99.90
54260;DHT22;40172;53.022;7.012;2024-03-02T15:19:10;13.20;99.90
54260;DHT22;40172;53.022;7.012;2024-03-02T15:21:35;13.20;99.90
54260;DHT22;40172;53.022;7.012;2024-03-02T15:24:01;13.20;99.90
54260;DHT22;40172;53.022;7.012;2024-03-02T15:26:27;13.30;99.90
54260;DHT22;40172;53.022;7.012;2024-03-02T15:28:52;13.40;99.90
54260;DHT22;40172;53.022;7.012;2024-03-02T15:31:22;13.40;99.90
54260;DHT22;40172;53.022;7.012;2024-03-02T15:33:48;13.50;99.90
54260;DHT22;40172;53.022;7.012;2024-03-02T15:36:15;13.50;99.90
54260;DHT22;40172;53.022;7.012;2024-03-02T15:38:40;13.40;99.90
54260;DHT22;40172;53.022;7.012;2024-03-02T15:41:06;13.40;99.90
54260;DHT22;40172;53.022;7.012;2024-03-02T15:43:32;13.40;99.90